createdAt,value
2018-11-11T00:00:34.308Z,58.80
2018-11-11T00:03:03.058Z,55.77
2018-11-11T00:05:31.797Z,53.60
2018-11-11T00:08:00.422Z,53.90
2018-11-11T00:10:29.063Z,56.73
2018-11-11T00:12:57.722Z,53.17
2018-11-11T00:15:26.432Z,49.53
2018-11-11T00:17:55.086Z,50.10
2018-11-11T00:20:23.865Z,53.53
2018-11-11T00:22:52.473Z,48.03
2018-11-11T00:25:21.102Z,54.17
2018-11-11T00:27:49.724Z,48.07
2018-11-11T00:30:19.456Z,48.47
2018-11-11T00:32:48.130Z,49.93
2018-11-11T00:35:16.809Z,47.90
2018-11-11T00:37:45.431Z,44.07
2018-11-11T00:40:15.544Z,41.77
2018-11-11T00:42:44.537Z,42.00
2018-11-11T00:45:13.949Z,39.07
2018-11-11T00:47:42.747Z,41.20
2018-11-11T00:50:12.078Z,41.93
2018-11-11T00:52:40.793Z,43.03
2018-11-11T00:55:12.632Z,46.10
2018-11-11T00:57:41.673Z,43.33
2018-11-11T01:00:13.001Z,42.03
2018-11-11T01:02:42.265Z,39.73
2018-11-11T01:05:11.864Z,39.73
2018-11-11T01:07:41.466Z,39.47
2018-11-11T01:10:12.072Z,39.40
2018-11-11T01:12:41.768Z,39.73
2018-11-11T01:15:12.141Z,43.73
2018-11-11T01:17:40.827Z,45.53
2018-11-11T01:20:11.645Z,40.13
2018-11-11T01:22:40.301Z,45.40
2018-11-11T01:25:11.140Z,39.87
2018-11-11T01:27:39.793Z,48.40
2018-11-11T01:30:08.969Z,39.63
2018-11-11T01:32:37.829Z,46.70
2018-11-11T01:35:08.473Z,41.53
2018-11-11T01:37:37.134Z,45.13
2018-11-11T01:40:06.681Z,42.10
2018-11-11T01:42:35.317Z,41.23
2018-11-11T01:45:04.018Z,44.40
2018-11-11T01:47:32.639Z,41.37
2018-11-11T01:50:01.318Z,42.67
2018-11-11T01:52:29.959Z,45.57
2018-11-11T01:54:58.602Z,44.43
2018-11-11T01:57:27.250Z,37.97
2018-11-11T01:59:55.948Z,44.03
2018-11-11T02:02:24.661Z,43.00
2018-11-11T02:04:53.303Z,42.90
2018-11-11T02:07:21.958Z,45.97
2018-11-11T02:09:50.761Z,49.57
2018-11-11T02:12:19.343Z,50.43
2018-11-11T02:14:48.273Z,42.80
2018-11-11T02:17:16.927Z,51.07
2018-11-11T02:19:45.653Z,46.87
2018-11-11T02:22:14.650Z,43.50
2018-11-11T02:24:43.261Z,41.90
2018-11-11T02:27:11.976Z,43.83
2018-11-11T02:29:40.582Z,43.10
2018-11-11T02:32:09.593Z,44.13
2018-11-11T02:34:38.237Z,42.27
2018-11-11T02:37:07.226Z,47.77
2018-11-11T02:39:35.854Z,47.10
2018-11-11T02:42:04.529Z,47.20
2018-11-11T02:44:33.205Z,48.27
2018-11-11T02:47:01.841Z,51.63
2018-11-11T02:49:30.798Z,44.23
2018-11-11T02:51:59.464Z,51.87
2018-11-11T02:54:28.136Z,49.80
2018-11-11T02:56:57.052Z,43.83
2018-11-11T02:59:25.726Z,47.03
2018-11-11T03:01:54.390Z,43.83
2018-11-11T03:04:23.118Z,45.37
2018-11-11T03:06:51.697Z,48.80
2018-11-11T03:09:20.360Z,45.07
2018-11-11T03:11:49.022Z,42.67
2018-11-11T03:14:17.642Z,47.83
2018-11-11T03:16:46.261Z,49.33
2018-11-11T03:19:14.921Z,47.83
2018-11-11T03:21:43.557Z,43.93
2018-11-11T03:24:12.182Z,49.83
2018-11-11T03:26:40.816Z,48.67
2018-11-11T03:29:09.571Z,49.57
2018-11-11T03:31:38.201Z,51.70
2018-11-11T03:34:06.829Z,52.80
2018-11-11T03:36:35.438Z,49.60
2018-11-11T03:39:04.382Z,48.97
2018-11-11T03:41:33.042Z,47.27
2018-11-11T03:44:01.698Z,44.43
2018-11-11T03:46:30.368Z,51.57
2018-11-11T03:48:59.030Z,47.60
2018-11-11T03:51:27.679Z,55.00
2018-11-11T03:53:56.356Z,48.27
2018-11-11T03:56:25.006Z,50.37
2018-11-11T03:58:53.657Z,52.37
2018-11-11T04:01:22.638Z,47.03
2018-11-11T04:03:51.297Z,50.53
2018-11-11T04:06:19.962Z,47.30
2018-11-11T04:08:48.603Z,55.47
2018-11-11T04:11:17.277Z,48.93
2018-11-11T04:13:46.152Z,47.17
2018-11-11T04:16:14.825Z,49.87
2018-11-11T04:18:43.504Z,44.40
2018-11-11T04:21:12.270Z,58.63
2018-11-11T04:23:40.964Z,57.20
2018-11-11T04:26:09.669Z,58.07
2018-11-11T04:28:38.315Z,52.83
2018-11-11T04:31:07.221Z,57.88
2018-11-11T04:33:35.869Z,56.33
2018-11-11T04:36:04.574Z,51.20
2018-11-11T04:38:33.213Z,56.87
2018-11-11T04:41:01.849Z,48.43
2018-11-11T04:43:30.479Z,59.00
2018-11-11T04:45:59.145Z,62.60
2018-11-11T04:48:27.814Z,52.80
2018-11-11T04:50:56.497Z,54.03
2018-11-11T04:53:25.128Z,47.53
2018-11-11T04:55:53.793Z,53.23
2018-11-11T04:58:22.477Z,50.50
2018-11-11T05:00:51.115Z,51.07
2018-11-11T05:03:19.806Z,48.10
2018-11-11T05:05:48.474Z,49.67
2018-11-11T05:08:17.153Z,52.50
2018-11-11T05:10:52.089Z,44.83
2018-11-11T05:13:20.708Z,47.50
2018-11-11T05:15:49.319Z,45.00
2018-11-11T05:18:17.983Z,53.87
2018-11-11T05:20:46.643Z,53.97
2018-11-11T05:23:15.334Z,55.97
2018-11-11T05:25:43.969Z,52.47
2018-11-11T05:28:12.598Z,45.97
2018-11-11T05:30:41.225Z,51.40
2018-11-11T05:33:09.923Z,52.13
2018-11-11T05:35:38.582Z,56.20
2018-11-11T05:38:07.436Z,48.30
2018-11-11T05:40:36.100Z,48.30
2018-11-11T05:43:04.795Z,54.23
2018-11-11T05:45:33.505Z,46.57
2018-11-11T05:48:02.134Z,51.43
2018-11-11T05:50:31.195Z,41.97
2018-11-11T05:52:59.901Z,52.83
2018-11-11T05:55:28.524Z,56.73
2018-11-11T05:57:57.214Z,48.10
2018-11-11T06:00:25.941Z,52.43
2018-11-11T06:02:54.582Z,53.43
2018-11-11T06:05:23.270Z,56.17
2018-11-11T06:07:51.988Z,62.77
2018-11-11T06:10:20.726Z,63.63
2018-11-11T06:12:49.424Z,48.50
2018-11-11T06:15:18.049Z,54.60
2018-11-11T06:17:46.759Z,55.23
2018-11-11T06:20:16.470Z,50.40
2018-11-11T06:22:45.179Z,51.63
2018-11-11T06:25:13.804Z,59.60
2018-11-11T06:27:42.452Z,62.30
2018-11-11T06:30:11.945Z,60.57
2018-11-11T06:32:40.632Z,52.13
2018-11-11T06:35:09.474Z,54.27
2018-11-11T06:37:38.237Z,44.83
2018-11-11T06:40:08.685Z,38.43
2018-11-11T06:42:37.662Z,32.53
2018-11-11T06:45:07.730Z,35.77
2018-11-11T06:47:36.368Z,39.13
2018-11-11T06:50:05.766Z,41.93
2018-11-11T06:52:34.415Z,41.30
2018-11-11T06:55:03.105Z,33.73
2018-11-11T06:57:31.986Z,34.47
2018-11-11T07:00:00.593Z,38.03
2018-11-11T07:02:35.054Z,36.20
2018-11-11T07:05:04.048Z,36.50
2018-11-11T07:07:32.746Z,38.73
2018-11-11T07:10:01.501Z,38.60
2018-11-11T07:12:30.207Z,40.07
2018-11-11T07:14:58.833Z,43.63
2018-11-11T07:17:27.502Z,41.27
2018-11-11T07:19:56.100Z,45.07
2018-11-11T07:22:24.789Z,46.07
2018-11-11T07:24:53.429Z,56.67
2018-11-11T07:27:22.146Z,52.10
2018-11-11T07:29:50.753Z,55.73
2018-11-11T07:32:19.447Z,51.00
2018-11-11T07:34:48.074Z,54.43
2018-11-11T07:37:16.834Z,54.63
2018-11-11T07:39:45.504Z,52.23
2018-11-11T07:42:14.500Z,53.57
2018-11-11T07:44:43.121Z,56.40
2018-11-11T07:47:11.767Z,56.77
2018-11-11T07:49:40.563Z,52.57
2018-11-11T07:52:09.243Z,52.17
2018-11-11T07:54:37.881Z,58.03
2018-11-11T07:57:06.604Z,53.60
2018-11-11T07:59:35.309Z,55.33
2018-11-11T08:02:04.023Z,54.70
2018-11-11T08:04:32.658Z,56.53
2018-11-11T08:07:01.313Z,57.20
2018-11-11T08:09:29.970Z,55.07
2018-11-11T08:12:00.149Z,57.17
2018-11-11T08:14:29.252Z,56.17
2018-11-11T08:16:58.190Z,56.50
2018-11-11T08:19:26.958Z,54.07
2018-11-11T08:21:55.603Z,54.67
2018-11-11T08:24:24.297Z,52.87
2018-11-11T08:26:53.230Z,49.93
2018-11-11T08:29:21.901Z,52.70
2018-11-11T08:31:50.528Z,51.73
2018-11-11T08:34:19.153Z,48.83
2018-11-11T08:36:48.054Z,52.80
2018-11-11T08:39:17.462Z,48.30
2018-11-11T08:41:46.601Z,42.97
2018-11-11T08:44:15.327Z,47.83
2018-11-11T08:46:45.224Z,53.63
2018-11-11T08:49:14.622Z,47.33
2018-11-11T08:51:43.282Z,47.63
2018-11-11T08:54:11.910Z,48.83
2018-11-11T08:56:40.581Z,46.50
2018-11-11T08:59:09.251Z,48.77
2018-11-11T09:01:37.976Z,44.53
2018-11-11T09:04:07.138Z,47.27
2018-11-11T09:06:35.799Z,46.40
2018-11-11T09:09:05.192Z,39.73
2018-11-11T09:11:33.992Z,41.07
2018-11-11T09:14:02.557Z,43.37
2018-11-11T09:16:31.239Z,45.67
2018-11-11T09:18:59.911Z,44.03
2018-11-11T09:21:29.098Z,46.47
2018-11-11T09:23:57.729Z,38.77
2018-11-11T09:26:26.381Z,44.67
2018-11-11T09:28:55.074Z,41.70
2018-11-11T09:31:23.902Z,53.80
2018-11-11T09:33:52.564Z,47.83
2018-11-11T09:36:21.265Z,40.30
2018-11-11T09:38:49.951Z,34.73
2018-11-11T09:41:18.604Z,30.23
2018-11-11T09:43:47.295Z,33.83
2018-11-11T09:46:15.985Z,34.37
2018-11-11T09:48:44.628Z,34.67
2018-11-11T09:51:13.328Z,34.20
2018-11-11T09:53:42.041Z,34.60
2018-11-11T09:56:10.705Z,33.00
2018-11-11T09:58:39.409Z,32.53
2018-11-11T10:01:08.197Z,31.33
2018-11-11T10:03:42.746Z,36.13
2018-11-11T10:06:18.302Z,33.03
2018-11-11T10:08:52.169Z,30.10
2018-11-11T10:11:59.118Z,30.70
2018-11-11T10:14:39.401Z,30.20
2018-11-11T10:18:11.766Z,29.70
2018-11-11T10:21:01.646Z,30.97
2018-11-11T10:23:35.598Z,29.30
2018-11-11T10:26:10.003Z,26.00
2018-11-11T10:28:46.417Z,26.83
2018-11-11T10:32:19.028Z,26.13
2018-11-11T10:35:23.122Z,26.97
2018-11-11T10:37:58.280Z,27.93
2018-11-11T10:41:30.746Z,29.13
2018-11-11T10:44:03.773Z,27.13
2018-11-11T10:46:42.123Z,27.20
2018-11-11T10:49:12.555Z,25.57
2018-11-11T10:51:41.215Z,24.73
2018-11-11T10:54:09.951Z,28.57
2018-11-11T10:56:38.565Z,28.17
2018-11-11T10:59:07.242Z,28.53
2018-11-11T11:01:41.090Z,25.30
2018-11-11T11:04:10.133Z,25.77
2018-11-11T11:06:43.898Z,26.63
2018-11-11T11:09:13.807Z,24.10
2018-11-11T11:11:43.605Z,24.47
2018-11-11T11:14:12.782Z,22.33
2018-11-11T11:16:41.434Z,24.87
2018-11-11T11:19:10.180Z,22.97
2018-11-11T11:21:39.115Z,23.37
2018-11-11T11:24:07.766Z,21.10
2018-11-11T11:26:36.390Z,24.03
2018-11-11T11:29:05.136Z,21.03
2018-11-11T11:31:33.877Z,17.10
2018-11-11T11:34:02.786Z,16.67
2018-11-11T11:36:31.469Z,17.17
2018-11-11T11:39:00.168Z,16.20
2018-11-11T11:41:28.936Z,16.17
2018-11-11T11:43:57.640Z,16.20
2018-11-11T11:46:26.266Z,17.30
2018-11-11T11:48:54.992Z,15.10
2018-11-11T11:51:23.638Z,16.87
2018-11-11T11:53:52.265Z,17.23
2018-11-11T11:56:20.954Z,18.17
2018-11-11T11:58:50.461Z,21.70
2018-11-11T12:01:19.115Z,19.70
2018-11-11T12:03:47.715Z,19.67
2018-11-11T12:06:16.378Z,20.87
2018-11-11T12:08:45.145Z,18.90
2018-11-11T12:11:13.771Z,19.13
2018-11-11T12:13:42.447Z,20.40
2018-11-11T12:16:11.078Z,27.97
2018-11-11T12:18:40.413Z,22.40
2018-11-11T12:21:09.073Z,20.93
2018-11-11T12:23:37.709Z,22.10
2018-11-11T12:26:06.378Z,20.70
2018-11-11T12:28:35.143Z,20.70
2018-11-11T12:31:03.814Z,20.50
2018-11-11T12:33:32.463Z,20.33
2018-11-11T12:36:01.113Z,23.10
2018-11-11T12:38:29.750Z,20.77
2018-11-11T12:40:58.504Z,22.83
2018-11-11T12:43:27.149Z,24.87
2018-11-11T12:45:55.815Z,22.37
2018-11-11T12:48:24.496Z,20.87
2018-11-11T12:50:53.141Z,21.27
2018-11-11T12:53:21.814Z,24.13
2018-11-11T12:55:50.485Z,22.90
2018-11-11T12:58:19.131Z,27.03
2018-11-11T13:00:47.814Z,22.43
2018-11-11T13:03:16.509Z,23.00
2018-11-11T13:05:45.136Z,23.17
2018-11-11T13:08:13.830Z,22.20
2018-11-11T13:10:42.486Z,22.20
2018-11-11T13:13:11.222Z,22.23
2018-11-11T13:15:39.899Z,22.13
2018-11-11T13:18:08.560Z,22.67
2018-11-11T13:20:37.217Z,22.53
2018-11-11T13:23:06.180Z,21.80
2018-11-11T13:25:34.902Z,21.70
2018-11-11T13:28:03.517Z,20.30
2018-11-11T13:30:32.167Z,20.83
2018-11-11T13:33:00.852Z,23.57
2018-11-11T13:35:29.502Z,21.87
2018-11-11T13:37:58.254Z,20.07
2018-11-11T13:40:26.889Z,20.03
2018-11-11T13:42:56.286Z,21.47
2018-11-11T13:45:24.953Z,22.10
2018-11-11T13:47:53.613Z,21.83
2018-11-11T13:50:23.699Z,22.10
2018-11-11T13:52:52.916Z,24.73
2018-11-11T13:55:22.409Z,25.30
2018-11-11T13:57:51.430Z,21.67
2018-11-11T14:00:28.966Z,21.27
2018-11-11T14:02:57.894Z,26.07
2018-11-11T14:05:26.829Z,20.97
2018-11-11T14:07:55.514Z,20.53
2018-11-11T14:10:24.229Z,20.30
2018-11-11T14:12:52.887Z,20.43
2018-11-11T14:15:23.612Z,20.10
2018-11-11T14:17:52.823Z,20.37
2018-11-11T14:20:22.854Z,23.77
2018-11-11T14:22:52.333Z,21.03
2018-11-11T14:25:23.744Z,21.57
2018-11-11T14:27:52.345Z,22.10
2018-11-11T14:30:22.463Z,20.37
2018-11-11T14:32:52.280Z,21.93
2018-11-11T14:35:20.979Z,21.23
2018-11-11T14:37:49.866Z,21.43
2018-11-11T14:40:25.634Z,26.13
2018-11-11T14:42:54.314Z,29.23
2018-11-11T14:45:23.489Z,25.93
2018-11-11T14:47:53.414Z,25.07
2018-11-11T14:50:22.738Z,25.20
2018-11-11T14:52:51.455Z,28.20
2018-11-11T14:55:22.582Z,28.50
2018-11-11T14:57:51.216Z,23.70
2018-11-11T15:00:23.967Z,24.63
2018-11-11T15:03:06.718Z,28.87
2018-11-11T15:05:35.514Z,29.00
2018-11-11T15:08:04.301Z,34.70
2018-11-11T15:10:32.945Z,30.17
2018-11-11T15:13:01.656Z,40.27
2018-11-11T15:15:30.275Z,38.53
2018-11-11T15:17:59.958Z,41.20
2018-11-11T15:20:28.657Z,39.10
2018-11-11T15:22:57.317Z,41.43
2018-11-11T15:25:27.185Z,36.87
2018-11-11T15:27:55.831Z,51.50
2018-11-11T15:30:25.955Z,46.37
2018-11-11T15:32:55.404Z,48.43
2018-11-11T15:35:24.113Z,42.30
2018-11-11T15:37:52.782Z,41.13
2018-11-11T15:40:22.855Z,38.10
2018-11-11T15:42:51.638Z,48.60
2018-11-11T15:45:22.477Z,42.57
2018-11-11T15:47:51.177Z,45.77
2018-11-11T15:50:21.347Z,39.77
2018-11-11T15:52:51.398Z,41.03
2018-11-11T15:55:21.054Z,41.03
2018-11-11T15:57:49.751Z,46.93
2018-11-11T16:00:23.834Z,42.97
2018-11-11T16:02:52.528Z,46.50
2018-11-11T16:05:21.382Z,41.43
2018-11-11T16:07:50.902Z,40.53
2018-11-11T16:10:25.754Z,45.30
2018-11-11T16:12:54.416Z,41.17
2018-11-11T16:15:25.336Z,39.20
2018-11-11T16:17:55.779Z,44.07
2018-11-11T16:20:25.765Z,41.00
2018-11-11T16:22:55.731Z,45.13
2018-11-11T16:25:24.428Z,45.70
2018-11-11T16:27:53.135Z,53.83
2018-11-11T16:30:24.127Z,65.97
2018-11-11T16:32:53.294Z,57.23
2018-11-11T16:35:23.238Z,59.87
2018-11-11T16:37:51.982Z,61.97
2018-11-11T16:40:23.892Z,60.90
2018-11-11T16:42:52.825Z,54.63
2018-11-11T16:45:23.201Z,64.53
2018-11-11T16:47:51.963Z,52.57
2018-11-11T16:50:23.910Z,62.03
2018-11-11T16:52:53.289Z,64.80
2018-11-11T16:55:23.468Z,60.10
2018-11-11T16:57:52.066Z,62.63
2018-11-11T17:00:23.104Z,75.63
2018-11-11T17:02:52.201Z,74.27
2018-11-11T17:05:22.229Z,70.07
2018-11-11T17:07:51.222Z,69.57
2018-11-11T17:10:23.941Z,111.33
2018-11-11T17:12:53.589Z,115.40
2018-11-11T17:15:23.834Z,130.10
2018-11-11T17:17:52.509Z,132.83
2018-11-11T17:20:22.274Z,154.37
2018-11-11T17:22:51.722Z,146.30
2018-11-11T17:25:21.350Z,158.13
2018-11-11T17:27:50.027Z,156.83
2018-11-11T17:30:21.116Z,159.83
2018-11-11T17:32:50.565Z,159.77
2018-11-11T17:35:19.266Z,164.00
2018-11-11T17:37:48.415Z,150.20
2018-11-11T17:40:19.316Z,132.70
2018-11-11T17:42:49.244Z,141.63
2018-11-11T17:45:18.219Z,130.43
2018-11-11T17:47:47.440Z,123.70
2018-11-11T17:50:19.279Z,131.17
2018-11-11T17:52:47.933Z,136.80
2018-11-11T17:55:17.930Z,134.50
2018-11-11T17:57:46.711Z,133.57
2018-11-11T18:00:18.725Z,123.97
2018-11-11T18:02:47.451Z,111.80
2018-11-11T18:05:17.497Z,106.90
2018-11-11T18:07:46.201Z,118.53
2018-11-11T18:10:16.136Z,123.03
2018-11-11T18:12:44.864Z,110.23
2018-11-11T18:15:15.765Z,77.93
2018-11-11T18:17:44.405Z,81.33
2018-11-11T18:20:24.696Z,81.30
2018-11-11T18:22:54.403Z,88.30
2018-11-11T18:25:23.378Z,83.30
2018-11-11T18:27:52.170Z,84.47
2018-11-11T18:30:24.486Z,118.57
2018-11-11T18:32:53.169Z,101.67
2018-11-11T18:35:22.133Z,90.27
2018-11-11T18:37:50.757Z,103.10
2018-11-11T18:40:20.809Z,105.90
2018-11-11T18:42:49.528Z,117.97
2018-11-11T18:45:20.630Z,116.43
2018-11-11T18:47:50.073Z,151.53
2018-11-11T18:50:22.441Z,154.97
2018-11-11T18:52:51.137Z,118.53
2018-11-11T18:55:19.822Z,73.80
2018-11-11T18:57:48.598Z,95.90
2018-11-11T19:00:25.216Z,95.67
2018-11-11T19:02:54.732Z,88.73
2018-11-11T19:05:24.067Z,68.03
2018-11-11T19:07:52.993Z,100.30
2018-11-11T19:10:23.860Z,81.17
2018-11-11T19:12:53.835Z,67.27
2018-11-11T19:15:22.812Z,68.67
2018-11-11T19:17:52.224Z,73.13
2018-11-11T19:20:22.228Z,67.60
2018-11-11T19:22:50.886Z,72.80
2018-11-11T19:25:20.953Z,86.77
2018-11-11T19:27:50.857Z,94.70
2018-11-11T19:30:20.655Z,91.43
2018-11-11T19:32:49.981Z,92.57
2018-11-11T19:35:18.874Z,96.57
2018-11-11T19:37:48.784Z,106.90
2018-11-11T19:40:19.004Z,102.03
2018-11-11T19:42:48.079Z,108.57
2018-11-11T19:45:19.009Z,90.50
2018-11-11T19:47:48.565Z,103.07
2018-11-11T19:50:18.628Z,115.27
2018-11-11T19:52:48.566Z,125.60
2018-11-11T19:55:18.462Z,115.47
2018-11-11T19:57:47.116Z,111.73
2018-11-11T20:00:18.553Z,94.13
2018-11-11T20:02:48.197Z,85.00
2018-11-11T20:05:17.483Z,89.10
2018-11-11T20:07:48.460Z,104.53
2018-11-11T20:10:18.189Z,95.33
2018-11-11T20:12:46.858Z,80.47
2018-11-11T20:15:18.687Z,75.23
2018-11-11T20:17:47.834Z,85.87
2018-11-11T20:20:20.090Z,59.43
2018-11-11T20:22:49.103Z,69.93
2018-11-11T20:25:18.627Z,85.23
2018-11-11T20:27:47.662Z,102.27
2018-11-11T20:30:19.887Z,66.43
2018-11-11T20:32:48.634Z,57.83
2018-11-11T20:35:19.223Z,51.63
2018-11-11T20:37:47.837Z,64.20
2018-11-11T20:40:17.852Z,64.13
2018-11-11T20:42:47.005Z,69.37
2018-11-11T20:45:16.794Z,67.90
2018-11-11T20:47:46.004Z,56.90
2018-11-11T20:50:16.608Z,51.97
2018-11-11T20:52:46.325Z,59.37
2018-11-11T20:55:16.430Z,54.53
2018-11-11T20:57:45.067Z,54.70
2018-11-11T21:00:17.186Z,39.67
2018-11-11T21:02:45.843Z,50.23
2018-11-11T21:05:15.793Z,58.83
2018-11-11T21:07:44.520Z,56.30
2018-11-11T21:10:15.605Z,55.90
2018-11-11T21:12:44.317Z,70.57
2018-11-11T21:15:15.421Z,60.90
2018-11-11T21:17:44.417Z,60.37
2018-11-11T21:20:14.369Z,65.37
2018-11-11T21:22:43.321Z,74.20
2018-11-11T21:25:12.614Z,55.17
2018-11-11T21:27:42.379Z,74.43
2018-11-11T21:30:13.734Z,77.37
2018-11-11T21:32:42.454Z,79.37
2018-11-11T21:35:11.631Z,79.77
2018-11-11T21:37:40.404Z,77.87
2018-11-11T21:40:12.597Z,81.03
2018-11-11T21:42:41.806Z,74.67
2018-11-11T21:45:12.128Z,74.70
2018-11-11T21:47:41.107Z,80.30
2018-11-11T21:50:11.914Z,84.43
2018-11-11T21:52:40.917Z,85.17
2018-11-11T21:55:09.905Z,89.00
2018-11-11T21:57:39.077Z,97.17
2018-11-11T22:00:11.719Z,107.23
2018-11-11T22:02:40.476Z,118.87
2018-11-11T22:05:10.579Z,108.60
2018-11-11T22:07:39.680Z,119.33
2018-11-11T22:10:10.418Z,110.73
2018-11-11T22:12:39.108Z,111.50
2018-11-11T22:15:09.058Z,99.00
2018-11-11T22:17:37.770Z,102.70
2018-11-11T22:20:07.239Z,103.23
2018-11-11T22:22:35.946Z,102.13
2018-11-11T22:25:05.082Z,103.47
2018-11-11T22:27:33.812Z,112.43
2018-11-11T22:30:02.458Z,101.93
2018-11-11T22:32:31.105Z,101.77
2018-11-11T22:34:59.718Z,111.70
2018-11-11T22:37:28.383Z,107.33
2018-11-11T22:39:57.039Z,108.77
2018-11-11T22:42:25.774Z,108.30
2018-11-11T22:44:54.425Z,115.17
2018-11-11T22:47:23.077Z,110.23
2018-11-11T22:49:51.998Z,106.20
2018-11-11T22:52:20.749Z,103.73
2018-11-11T22:54:49.421Z,101.90
2018-11-11T22:57:18.094Z,102.63
2018-11-11T22:59:46.758Z,100.97
2018-11-11T23:02:15.449Z,94.17
2018-11-11T23:04:44.146Z,106.70
2018-11-11T23:07:12.810Z,100.57
2018-11-11T23:09:41.458Z,93.87
2018-11-11T23:12:10.160Z,101.87
2018-11-11T23:14:38.897Z,99.33
2018-11-11T23:17:07.528Z,122.33
2018-11-11T23:19:36.205Z,146.50
2018-11-11T23:22:05.230Z,128.63
2018-11-11T23:24:33.853Z,131.73
2018-11-11T23:27:02.558Z,130.27
2018-11-11T23:29:31.250Z,120.67
2018-11-11T23:31:59.916Z,111.37
2018-11-11T23:34:28.638Z,116.90
2018-11-11T23:36:57.427Z,105.80
2018-11-11T23:39:26.132Z,167.67
2018-11-11T23:41:54.783Z,155.47
2018-11-11T23:44:23.450Z,149.57
2018-11-11T23:46:52.109Z,142.17
2018-11-11T23:49:20.800Z,120.93
2018-11-11T23:51:49.483Z,104.20
2018-11-11T23:54:18.130Z,125.33
2018-11-11T23:56:47.173Z,107.33
2018-11-11T23:59:15.857Z,134.30
